首页
METAR-TAF:

METAR-TAF

机场 :

內排國際機場

河內, 越南

纬度: 21-01N, 经度: 105-48E, 海拔: 6米

当前天气观测

该预报发布于31分钟前的15:00 UTC
风速1节,风向多变
温度 27°C
湿度 100%
气压 998 hPa
能見度: 6000
散云层高于3400英尺
多云层高于7000英尺
小雨

METAR: VVNB 161500Z VRB01KT 6000 -RA SCT034 BKN070 27/27 Q0998 TEMPO TL1530 3500 +RA

时间: 22:31 (15:31 UTC)

预报

该预报发布于4小时和31分钟前的11:00 UTC
预报有效从16日的 12点(UTC)到 17日的 12点(UTC)
风速10节,风向西北
能見度: 9000
少量云层高于1200英尺
多云层高于5000英尺
小雨
短暂存在
从 16日的 12点(UTC)到 16日的 18点(UTC)
能見度: 1500
多云层高于1000英尺
散云层高于2300英尺, 积雨云.
多云层高于4000英尺
雷暴, 大雨
成为
从 16日的 18点(UTC)到 16日的 20点(UTC)
风速15节,风向
短暂存在
从 16日的 20点(UTC)到 17日的 04点(UTC)
风速15节,风向东北,有时为25节阵风
能見度: 1200
多云层高于800英尺
散云层高于2300英尺, 塔状积云.
阴天层高于4000英尺
大阵雨

TAF: VVNB 161100Z 1612/1712 32010KT 9000 -RA FEW012 BKN050 TEMPO 1612/1618 1500 +TSRA BKN010 SCT023CB BKN040 BECMG 1618/1620 01015KT TEMPO 1620/1704 04015G25KT 1200 +SHRA BKN008 SCT023TCU OVC040

超过4000个机场的气象观测和天气预报(METAR&TAF报告)。

可查询的气象台以黄色和红色小点在地图上表示。

将鼠标移到小点上方,可查看气象台名称。

然后点击查看天气观测和预报。

如需切换地图:点击带黑十字的绿色按钮放大地图;点击带横线的绿色按钮缩小地图;或者点击绿色箭头查看邻近地区的地图。


METAR-TAF: